Larkspur — C6BR6 — position and weather

sailwx.info

Track history (hours):
 
Tides and Currents Weather Stations Pressure Air Temp Water Temp Dewpoint Dewpoint Depression Visibility Wind Speed Wind Dir Waves Ship Positions

Larkspur

Operator: Transeuropa Lines

Last reported at 2017-Jan-12 15:29 UTC. Time now 2017-Jan-18 16:17 UTC.
Position N 41°05' E 001°12'.

Length 225 m; draft 10 m.

Type: Tanker. MMSI: 311000344.

Date/timePositionNaut miles runAvg speedWind from/ knotsBaromVisibWave heightAir tempDewpointWater temp
2017-Jan-12 15:29N 41°05' E 001°12'  
2017-Jan-08 10:22N 41°04' E 001°16'34 2.1
2017-Jan-07 18:15N 40°32' E 001°03'1216.9
2017-Jan-07 17:33N 40°20' E 000°60'1716.8
2017-Jan-07 16:33N 40°04' E 000°56'12216.5
2017-Jan-07 09:12N 38°10' E 000°01'1116.7
2017-Jan-07 08:33N 38°01' W 000°06'1717.0
2017-Jan-07 07:33N 37°47' W 000°18'1616.6
2017-Jan-07 06:34N 37°33' W 000°30'1716.6
2017-Jan-07 05:33N 37°22' W 000°46'1717.1
2017-Jan-07 04:33N 37°11' W 001°02'21915.6
2017-Jan-06 14:34N 35°58' W 005°19'2117.8
2017-Jan-06 13:24N 35°55' W 005°44'22114.7
2017-Jan-05 22:23N 37°31' W 009°52'1417.0
2017-Jan-05 21:33N 37°45' W 009°56'1717.0
2017-Jan-05 20:33N 38°02' W 010°01'1716.8
2017-Jan-05 19:33N 38°18' W 010°06'1716.8
2017-Jan-05 18:33N 38°35' W 010°11'1616.6
2017-Jan-05 17:33N 38°51' W 010°13'1616.3
2017-Jan-05 16:33N 39°08' W 010°14'1716.4
2017-Jan-05 15:30N 39°25' W 010°13'  
Track history (hours):
 
Tides and Currents Weather Stations Pressure Air Temp Water Temp Dewpoint Dewpoint Depression Visibility Wind Speed Wind Dir Waves Ship Positions

Larkspur

Operator: Transeuropa Lines

Last reported at 2017-Jan-12 15:29 UTC. Time now 2017-Jan-18 16:17 UTC.
Position N 41°05' E 001°12'.

Length 225 m; draft 10 m.

Type: Tanker. MMSI: 311000344.

Date/timePositionNaut miles runAvg speedWind from/ knotsBaromVisibWave heightAir tempDewpointWater temp
2017-Jan-12 15:29N 41°05' E 001°12'  
2017-Jan-08 10:22N 41°04' E 001°16'34 2.1
2017-Jan-07 18:15N 40°32' E 001°03'1216.9
2017-Jan-07 17:33N 40°20' E 000°60'1716.8
2017-Jan-07 16:33N 40°04' E 000°56'12216.5
2017-Jan-07 09:12N 38°10' E 000°01'1116.7
2017-Jan-07 08:33N 38°01' W 000°06'1717.0
2017-Jan-07 07:33N 37°47' W 000°18'1616.6
2017-Jan-07 06:34N 37°33' W 000°30'1716.6
2017-Jan-07 05:33N 37°22' W 000°46'1717.1
2017-Jan-07 04:33N 37°11' W 001°02'21915.6
2017-Jan-06 14:34N 35°58' W 005°19'2117.8
2017-Jan-06 13:24N 35°55' W 005°44'22114.7
2017-Jan-05 22:23N 37°31' W 009°52'1417.0
2017-Jan-05 21:33N 37°45' W 009°56'1717.0
2017-Jan-05 20:33N 38°02' W 010°01'1716.8
2017-Jan-05 19:33N 38°18' W 010°06'1716.8
2017-Jan-05 18:33N 38°35' W 010°11'1616.6
2017-Jan-05 17:33N 38°51' W 010°13'1616.3
2017-Jan-05 16:33N 39°08' W 010°14'1716.4
2017-Jan-05 15:30N 39°25' W 010°13'  

Dump ship's entire track history